createdAt,value
2023-01-17T00:00:39.966Z,97075.06
2023-01-17T00:03:29.371Z,97070.25
2023-01-17T00:06:34.950Z,97063.28
2023-01-17T00:09:41.027Z,97067.34
2023-01-17T00:12:31.152Z,97062.84
2023-01-17T00:15:21.018Z,97063.88
2023-01-17T00:18:11.033Z,97056.19
2023-01-17T00:21:17.238Z,97061.22
2023-01-17T00:24:23.992Z,97063.09
2023-01-17T00:27:14.381Z,97059.69
2023-01-17T00:30:01.836Z,97071.94
2023-01-17T00:32:50.189Z,97062.59
2023-01-17T00:35:41.785Z,97058.56
2023-01-17T00:38:30.847Z,97055.09
2023-01-17T00:41:18.617Z,97061.72
2023-01-17T00:44:24.734Z,97059.13
2023-01-17T00:47:31.068Z,97050.84
2023-01-17T00:50:37.457Z,97054.34
2023-01-17T00:53:45.262Z,97046.84
2023-01-17T00:56:51.637Z,97060.41
2023-01-17T00:59:58.679Z,97063.38
2023-01-17T01:03:04.891Z,97065.47
2023-01-17T01:06:10.963Z,97063.69
2023-01-17T01:09:18.699Z,97067.69
2023-01-17T01:12:25.091Z,97070.88
2023-01-17T01:15:31.168Z,97067.69
2023-01-17T01:18:37.403Z,97072.00
2023-01-17T01:21:43.789Z,97072.81
2023-01-17T01:24:51.375Z,97063.94
2023-01-17T01:27:57.487Z,97067.63
2023-01-17T01:31:03.666Z,97070.84
2023-01-17T01:33:53.750Z,97075.38
2023-01-17T01:36:42.480Z,97066.03
2023-01-17T01:39:31.092Z,97076.97
2023-01-17T01:42:21.144Z,97069.53
2023-01-17T01:45:17.833Z,97074.56
2023-01-17T01:48:12.770Z,97076.97
2023-01-17T01:51:02.028Z,97063.94
2023-01-17T01:53:54.507Z,97062.81
2023-01-17T01:56:43.595Z,97065.75
2023-01-17T01:59:35.182Z,97064.44
2023-01-17T02:02:23.822Z,97062.81
2023-01-17T02:05:16.191Z,97065.47
2023-01-17T02:08:07.750Z,97065.22
2023-01-17T02:10:57.828Z,97062.81
2023-01-17T02:13:46.631Z,97075.69
2023-01-17T02:16:49.303Z,97069.28
2023-01-17T02:20:16.954Z,97072.41
2023-01-17T02:23:44.119Z,97068.66
2023-01-17T02:26:49.728Z,97068.72
2023-01-17T02:30:22.272Z,97072.97
2023-01-17T02:33:18.946Z,97070.31
2023-01-17T02:36:11.119Z,97072.72
2023-01-17T02:39:03.613Z,97078.78
2023-01-17T02:41:55.515Z,97074.56
2023-01-17T02:44:45.665Z,97073.47
2023-01-17T02:47:36.296Z,97076.72
2023-01-17T02:50:28.410Z,97083.06
2023-01-17T02:53:29.610Z,97084.94
2023-01-17T02:56:28.239Z,97091.94
2023-01-17T02:59:29.355Z,97090.63
2023-01-17T03:02:22.592Z,97098.56
2023-01-17T03:05:20.384Z,97112.22
2023-01-17T03:08:09.560Z,97122.09
2023-01-17T03:10:58.961Z,97103.44
2023-01-17T03:13:47.619Z,97111.75
2023-01-17T03:16:36.596Z,97123.75
2023-01-17T03:19:25.315Z,97124.53
2023-01-17T03:22:15.317Z,97125.34
2023-01-17T03:25:03.966Z,97129.63
2023-01-17T03:27:52.604Z,97134.09
2023-01-17T03:30:41.297Z,97133.53
2023-01-17T03:33:30.228Z,97138.88
2023-01-17T03:36:20.306Z,97146.09
2023-01-17T03:39:10.600Z,97143.75
2023-01-17T03:41:59.323Z,97147.19
2023-01-17T03:44:47.903Z,97149.81
2023-01-17T03:47:37.080Z,97150.84
2023-01-17T03:50:25.922Z,97170.56
2023-01-17T03:53:14.543Z,97161.25
2023-01-17T03:56:04.698Z,97169.00
2023-01-17T03:58:53.647Z,97174.25
2023-01-17T04:01:42.525Z,97169.53
2023-01-17T04:04:31.259Z,97169.53
2023-01-17T04:07:20.499Z,97169.53
2023-01-17T04:10:09.671Z,97182.81
2023-01-17T04:13:02.457Z,97176.97
2023-01-17T04:15:52.328Z,97166.81
2023-01-17T04:18:41.044Z,97181.78
2023-01-17T04:21:29.919Z,97174.81
2023-01-17T04:24:18.550Z,97187.13
2023-01-17T04:27:07.360Z,97188.22
2023-01-17T04:29:57.299Z,97182.38
2023-01-17T04:32:46.440Z,97188.22
2023-01-17T04:35:35.064Z,97197.28
2023-01-17T04:38:24.348Z,97210.63
2023-01-17T04:41:12.978Z,97206.88
2023-01-17T04:44:01.912Z,97221.28
2023-01-17T04:46:52.066Z,97226.13
2023-01-17T04:49:41.975Z,97237.84
2023-01-17T04:52:31.447Z,97242.59
2023-01-17T04:55:19.999Z,97258.63
2023-01-17T04:58:08.617Z,97254.66
2023-01-17T05:00:57.222Z,97254.91
2023-01-17T05:03:47.369Z,97267.16
2023-01-17T05:06:36.065Z,97280.50
2023-01-17T05:09:24.833Z,97275.69
2023-01-17T05:12:13.441Z,97291.69
2023-01-17T05:15:02.069Z,97265.53
2023-01-17T05:17:52.142Z,97273.06
2023-01-17T05:20:42.185Z,97281.56
2023-01-17T05:23:30.836Z,97287.94
2023-01-17T05:26:19.396Z,97285.78
2023-01-17T05:29:08.149Z,97288.69
2023-01-17T05:31:56.782Z,97279.84
2023-01-17T05:34:45.393Z,97282.00
2023-01-17T05:37:35.405Z,97277.97
2023-01-17T05:40:25.772Z,97284.69
2023-01-17T05:43:14.426Z,97286.31
2023-01-17T05:46:03.010Z,97300.16
2023-01-17T05:48:51.692Z,97299.66
2023-01-17T05:51:40.327Z,97307.94
2023-01-17T05:54:30.296Z,97301.31
2023-01-17T05:57:18.938Z,97305.53
2023-01-17T06:00:08.802Z,97301.88
2023-01-17T06:02:58.558Z,97308.25
2023-01-17T06:05:47.472Z,97317.31
2023-01-17T06:08:36.176Z,97314.38
2023-01-17T06:11:29.388Z,97323.19
2023-01-17T06:14:18.889Z,97327.66
2023-01-17T06:17:08.667Z,97313.78
2023-01-17T06:19:57.444Z,97321.78
2023-01-17T06:22:46.234Z,97332.72
2023-01-17T06:25:38.616Z,97323.59
2023-01-17T06:28:28.790Z,97323.03
2023-01-17T06:31:18.258Z,97332.69
2023-01-17T06:34:07.077Z,97336.38
2023-01-17T06:36:55.681Z,97338.22
2023-01-17T06:39:44.259Z,97353.00
2023-01-17T06:42:32.873Z,97348.22
2023-01-17T06:45:23.150Z,97348.22
2023-01-17T06:48:11.948Z,97359.44
2023-01-17T06:51:00.623Z,97366.94
2023-01-17T06:53:49.410Z,97363.19
2023-01-17T06:56:38.359Z,97373.31
2023-01-17T06:59:27.085Z,97386.66
2023-01-17T07:02:17.106Z,97390.16
2023-01-17T07:05:06.149Z,97392.00
2023-01-17T07:07:54.771Z,97396.78
2023-01-17T07:10:44.455Z,97393.59
2023-01-17T07:13:36.477Z,97400.53
2023-01-17T07:16:25.236Z,97402.41
2023-01-17T07:19:15.606Z,97397.06
2023-01-17T07:22:04.313Z,97410.69
2023-01-17T07:24:58.694Z,97417.09
2023-01-17T07:27:49.499Z,97406.66
2023-01-17T07:30:38.150Z,97412.25
2023-01-17T07:33:26.968Z,97416.25
2023-01-17T07:36:16.980Z,97409.34
2023-01-17T07:39:06.445Z,97406.94
2023-01-17T07:41:55.204Z,97408.81
2023-01-17T07:44:45.015Z,97399.97
2023-01-17T07:47:34.075Z,97417.09
2023-01-17T07:50:22.732Z,97411.47
2023-01-17T07:53:12.848Z,97409.06
2023-01-17T07:56:05.356Z,97414.13
2023-01-17T07:58:53.884Z,97421.34
2023-01-17T08:01:42.628Z,97429.09
2023-01-17T08:04:34.725Z,97428.53
2023-01-17T08:07:23.395Z,97434.69
2023-01-17T08:10:17.890Z,97433.31
2023-01-17T08:13:09.582Z,97433.06
2023-01-17T08:16:02.251Z,97434.94
2023-01-17T08:18:50.881Z,97440.00
2023-01-17T08:21:39.610Z,97437.31
2023-01-17T08:24:28.319Z,97448.00
2023-01-17T08:27:18.260Z,97458.66
2023-01-17T08:30:08.532Z,97464.00
2023-01-17T08:32:57.415Z,97469.59
2023-01-17T08:35:53.380Z,97463.75
2023-01-17T08:38:42.117Z,97463.16
2023-01-17T08:41:32.246Z,97466.66
2023-01-17T08:44:22.462Z,97469.84
2023-01-17T08:47:11.392Z,97467.72
2023-01-17T08:50:00.327Z,97473.59
2023-01-17T08:52:49.534Z,97479.44
2023-01-17T08:55:40.884Z,97485.34
2023-01-17T08:58:31.303Z,97491.75
2023-01-17T09:01:21.504Z,97495.75
2023-01-17T09:04:10.449Z,97496.00
2023-01-17T09:06:59.179Z,97500.78
2023-01-17T09:09:48.407Z,97511.47
2023-01-17T09:12:37.482Z,97512.53
2023-01-17T09:15:26.156Z,97514.66
2023-01-17T09:18:16.103Z,97528.00
2023-01-17T09:21:12.107Z,97532.28
2023-01-17T09:24:01.602Z,97544.53
2023-01-17T09:26:50.377Z,97533.00
2023-01-17T09:29:39.123Z,97527.38
2023-01-17T09:32:27.880Z,97531.09
2023-01-17T09:35:18.589Z,97527.34
2023-01-17T09:38:07.875Z,97549.00
2023-01-17T09:40:56.642Z,97547.88
2023-01-17T09:43:48.728Z,97555.63
2023-01-17T09:46:40.963Z,97554.53
2023-01-17T09:49:36.194Z,97557.75
2023-01-17T09:52:26.380Z,97565.75
2023-01-17T09:55:16.939Z,97554.53
2023-01-17T09:58:08.565Z,97555.59
2023-01-17T10:01:03.566Z,97567.91
2023-01-17T10:04:03.017Z,97564.69
2023-01-17T10:07:02.677Z,97567.63
2023-01-17T10:10:05.206Z,97581.34
2023-01-17T10:12:58.360Z,97579.50
2023-01-17T10:16:05.946Z,97574.44
2023-01-17T10:19:14.698Z,97564.81
2023-01-17T10:22:16.581Z,97568.56
2023-01-17T10:25:17.036Z,97568.56
2023-01-17T10:28:11.003Z,97569.63
2023-01-17T10:31:02.225Z,97570.72
2023-01-17T10:33:53.681Z,97567.53
2023-01-17T10:36:44.873Z,97566.97
2023-01-17T10:39:33.858Z,97573.41
2023-01-17T10:42:27.529Z,97567.72
2023-01-17T10:45:19.018Z,97586.22
2023-01-17T10:48:13.325Z,97576.88
2023-01-17T10:51:08.005Z,97588.06
2023-01-17T10:54:05.484Z,97592.53
2023-01-17T10:56:54.145Z,97593.06
2023-01-17T10:59:44.466Z,97598.16
2023-01-17T11:02:39.950Z,97593.06
2023-01-17T11:05:30.684Z,97600.56
2023-01-17T11:08:21.981Z,97595.72
2023-01-17T11:11:10.864Z,97597.88
2023-01-17T11:14:01.691Z,97600.06
2023-01-17T11:17:01.917Z,97594.44
2023-01-17T11:19:51.290Z,97595.53
2023-01-17T11:22:40.273Z,97590.19
2023-01-17T11:25:29.217Z,97581.94
2023-01-17T11:28:25.964Z,97594.22
2023-01-17T11:31:35.228Z,97587.28
2023-01-17T11:34:26.966Z,97595.78
2023-01-17T11:37:20.297Z,97584.53
2023-01-17T11:40:10.062Z,97590.38
2023-01-17T11:43:05.651Z,97594.13
2023-01-17T11:46:06.127Z,97592.50
2023-01-17T11:48:56.463Z,97596.50
2023-01-17T11:51:46.616Z,97585.81
2023-01-17T11:54:39.469Z,97590.88
2023-01-17T11:57:29.384Z,97586.59
2023-01-17T12:00:21.901Z,97592.47
2023-01-17T12:03:19.338Z,97589.53
2023-01-17T12:06:12.514Z,97589.53
2023-01-17T12:09:11.449Z,97593.50
2023-01-17T12:12:23.473Z,97590.31
2023-01-17T12:15:21.226Z,97602.13
2023-01-17T12:18:20.898Z,97591.44
2023-01-17T12:21:20.613Z,97590.34
2023-01-17T12:24:26.212Z,97600.00
2023-01-17T12:27:20.563Z,97598.91
2023-01-17T12:30:17.793Z,97605.84
2023-01-17T12:33:21.726Z,97596.78
2023-01-17T12:36:17.616Z,97594.63
2023-01-17T12:39:11.771Z,97599.41
2023-01-17T12:42:05.417Z,97607.44
2023-01-17T12:44:57.928Z,97604.22
2023-01-17T12:47:49.285Z,97602.63
2023-01-17T12:50:40.681Z,97605.31
2023-01-17T12:53:33.296Z,97598.34
2023-01-17T12:56:27.618Z,97596.72
2023-01-17T12:59:21.692Z,97598.59
2023-01-17T13:02:17.736Z,97598.38
2023-01-17T13:05:10.753Z,97589.75
2023-01-17T13:08:06.296Z,97595.41
2023-01-17T13:10:58.489Z,97605.31
2023-01-17T13:13:51.330Z,97613.56
2023-01-17T13:16:45.567Z,97615.19
2023-01-17T13:19:41.643Z,97619.19
2023-01-17T13:22:30.603Z,97610.09
2023-01-17T13:25:34.298Z,97609.59
2023-01-17T13:28:30.868Z,97619.19
2023-01-17T13:31:28.658Z,97619.75
2023-01-17T13:34:30.343Z,97633.09
2023-01-17T13:37:41.341Z,97632.00
2023-01-17T13:40:34.023Z,97635.50
2023-01-17T13:43:25.708Z,97644.06
2023-01-17T13:46:14.269Z,97638.47
2023-01-17T13:49:33.965Z,97652.66
2023-01-17T13:52:33.521Z,97648.91
2023-01-17T13:55:46.304Z,97648.91
2023-01-17T13:58:58.678Z,97635.56
2023-01-17T14:01:54.410Z,97647.81
2023-01-17T14:05:12.109Z,97649.16
2023-01-17T14:08:02.561Z,97650.22
2023-01-17T14:10:52.032Z,97649.72
2023-01-17T14:13:41.337Z,97653.19
2023-01-17T14:16:31.363Z,97652.41
2023-01-17T14:19:27.029Z,97656.13
2023-01-17T14:22:24.584Z,97654.53
2023-01-17T14:25:17.416Z,97664.16
2023-01-17T14:28:08.497Z,97652.38
2023-01-17T14:30:57.613Z,97651.56
2023-01-17T14:33:46.378Z,97647.53
2023-01-17T14:36:36.733Z,97636.31
2023-01-17T14:39:26.839Z,97642.81
2023-01-17T14:42:17.265Z,97641.22
2023-01-17T14:45:07.503Z,97642.31
2023-01-17T14:47:58.156Z,97650.03
2023-01-17T14:50:48.627Z,97657.22
2023-01-17T14:53:37.351Z,97665.78
2023-01-17T14:56:28.277Z,97663.91
2023-01-17T14:59:18.551Z,97663.94
2023-01-17T15:02:12.994Z,97656.72
2023-01-17T15:05:01.655Z,97669.50
2023-01-17T15:07:53.045Z,97675.41
2023-01-17T15:10:48.715Z,97675.41
2023-01-17T15:13:44.624Z,97665.25
2023-01-17T15:16:36.242Z,97662.59
2023-01-17T15:19:24.992Z,97674.31
2023-01-17T15:22:14.126Z,97680.19
2023-01-17T15:25:02.932Z,97671.94
2023-01-17T15:27:51.931Z,97668.19
2023-01-17T15:31:02.209Z,97670.59
2023-01-17T15:33:54.348Z,97677.53
2023-01-17T15:36:43.132Z,97671.66
2023-01-17T15:39:32.449Z,97675.38
2023-01-17T15:42:24.040Z,97684.41
2023-01-17T15:45:15.999Z,97683.34
2023-01-17T15:48:40.507Z,97689.97
2023-01-17T15:51:33.394Z,97687.09
2023-01-17T15:54:26.839Z,97686.00
2023-01-17T15:57:37.139Z,97690.75
2023-01-17T16:00:32.486Z,97697.78
2023-01-17T16:03:24.039Z,97697.78
2023-01-17T16:06:30.734Z,97690.03
2023-01-17T16:09:22.561Z,97685.47
2023-01-17T16:12:11.272Z,97683.63
2023-01-17T16:15:11.712Z,97692.97
2023-01-17T16:18:04.717Z,97693.50
2023-01-17T16:20:55.377Z,97692.41
2023-01-17T16:23:45.404Z,97696.16
2023-01-17T16:26:33.987Z,97689.53
2023-01-17T16:29:22.972Z,97686.06
2023-01-17T16:32:11.546Z,97684.47
2023-01-17T16:35:00.276Z,97683.94
2023-01-17T16:37:50.976Z,97690.31
2023-01-17T16:40:43.817Z,97694.06
2023-01-17T16:43:32.559Z,97683.38
2023-01-17T16:46:23.626Z,97683.41
2023-01-17T16:49:12.283Z,97693.53
2023-01-17T16:52:01.295Z,97689.53
2023-01-17T16:54:49.984Z,97678.06
2023-01-17T16:57:40.162Z,97668.44
2023-01-17T17:00:28.836Z,97658.06
2023-01-17T17:03:18.162Z,97663.16
2023-01-17T17:06:07.132Z,97670.84
2023-01-17T17:08:55.886Z,97665.50
2023-01-17T17:11:44.498Z,97665.78
2023-01-17T17:14:34.616Z,97668.47
2023-01-17T17:17:23.894Z,97668.47
2023-01-17T17:20:14.204Z,97665.50
2023-01-17T17:23:02.805Z,97667.88
2023-01-17T17:25:57.077Z,97665.22
2023-01-17T17:28:45.585Z,97665.78
2023-01-17T17:31:36.377Z,97660.41
2023-01-17T17:34:27.648Z,97673.25
2023-01-17T17:37:16.895Z,97673.78
2023-01-17T17:40:06.955Z,97686.59
2023-01-17T17:42:55.702Z,97688.72
2023-01-17T17:45:44.314Z,97682.78
2023-01-17T17:48:34.474Z,97687.09
2023-01-17T17:51:25.613Z,97679.63
2023-01-17T17:54:15.867Z,97677.44
2023-01-17T17:57:04.709Z,97682.19
2023-01-17T17:59:56.049Z,97684.09
2023-01-17T18:02:44.786Z,97683.81
2023-01-17T18:05:34.825Z,97687.03
2023-01-17T18:08:23.791Z,97688.63
2023-01-17T18:11:14.976Z,97690.53
2023-01-17T18:14:05.999Z,97694.25
2023-01-17T18:16:54.722Z,97691.81
2023-01-17T18:19:46.013Z,97690.19
2023-01-17T18:22:36.039Z,97687.53
2023-01-17T18:25:24.713Z,97691.78
2023-01-17T18:28:13.327Z,97678.72
2023-01-17T18:31:07.546Z,97687.00
2023-01-17T18:33:56.996Z,97691.78
2023-01-17T18:36:45.783Z,97690.75
2023-01-17T18:39:35.868Z,97696.91
2023-01-17T18:42:27.382Z,97693.69
2023-01-17T18:45:16.218Z,97697.19
2023-01-17T18:48:05.102Z,97707.91
2023-01-17T18:50:57.623Z,97700.41
2023-01-17T18:53:47.576Z,97697.22
2023-01-17T18:56:37.594Z,97703.06
2023-01-17T18:59:26.231Z,97704.69
2023-01-17T19:02:15.631Z,97699.91
2023-01-17T19:05:05.569Z,97706.03
2023-01-17T19:07:56.821Z,97718.34
2023-01-17T19:10:46.599Z,97713.28
2023-01-17T19:13:37.954Z,97707.38
2023-01-17T19:16:28.006Z,97708.19
2023-01-17T19:19:17.695Z,97699.38
2023-01-17T19:22:06.384Z,97706.84
2023-01-17T19:24:55.102Z,97712.19
2023-01-17T19:27:43.784Z,97717.31
2023-01-17T19:30:34.302Z,97719.69
2023-01-17T19:33:25.872Z,97719.44
2023-01-17T19:36:17.068Z,97720.81
2023-01-17T19:39:09.286Z,97721.31
2023-01-17T19:41:57.924Z,97721.31
2023-01-17T19:44:46.564Z,97725.59
2023-01-17T19:47:36.697Z,97730.44
2023-01-17T19:50:25.396Z,97732.53
2023-01-17T19:53:14.126Z,97730.94
2023-01-17T19:56:06.305Z,97728.81
2023-01-17T19:58:57.084Z,97735.47
2023-01-17T20:01:45.876Z,97732.56
2023-01-17T20:04:35.965Z,97747.00
2023-01-17T20:07:24.848Z,97743.50
2023-01-17T20:10:13.553Z,97744.31
2023-01-17T20:13:02.167Z,97751.53
2023-01-17T20:15:50.788Z,97755.28
2023-01-17T20:18:39.979Z,97756.09
2023-01-17T20:21:31.031Z,97758.75
2023-01-17T20:24:19.662Z,97768.38
2023-01-17T20:27:08.303Z,97769.97
2023-01-17T20:29:56.996Z,97774.78
2023-01-17T20:32:46.013Z,97778.00
2023-01-17T20:35:34.702Z,97774.78
2023-01-17T20:38:27.345Z,97784.69
2023-01-17T20:41:17.502Z,97775.31
2023-01-17T20:44:07.604Z,97789.22
2023-01-17T20:46:56.253Z,97781.75
2023-01-17T20:49:44.863Z,97798.59
2023-01-17T20:52:33.558Z,97792.44
2023-01-17T20:55:24.297Z,97794.28
2023-01-17T20:58:12.933Z,97792.41
2023-01-17T21:01:01.833Z,97790.28
2023-01-17T21:03:53.143Z,97792.94
2023-01-17T21:06:42.892Z,97795.38
2023-01-17T21:09:31.539Z,97786.81
2023-01-17T21:12:22.605Z,97784.41
2023-01-17T21:15:23.872Z,97779.31
2023-01-17T21:18:12.788Z,97782.28
2023-01-17T21:21:05.667Z,97783.34
2023-01-17T21:23:57.313Z,97781.19
2023-01-17T21:26:47.288Z,97780.94
2023-01-17T21:29:40.815Z,97783.63
2023-01-17T21:32:31.469Z,97788.16
2023-01-17T21:35:20.981Z,97783.34
2023-01-17T21:38:10.717Z,97784.16
2023-01-17T21:41:02.853Z,97779.31
2023-01-17T21:43:57.561Z,97778.28
2023-01-17T21:46:48.440Z,97780.16
2023-01-17T21:49:39.081Z,97775.34
2023-01-17T21:52:34.268Z,97776.41
2023-01-17T21:55:41.012Z,97772.91
2023-01-17T21:58:46.099Z,97779.31
2023-01-17T22:01:34.998Z,97762.50
2023-01-17T22:04:25.623Z,97764.66
2023-01-17T22:07:15.829Z,97765.69
2023-01-17T22:10:04.756Z,97757.69
2023-01-17T22:12:53.506Z,97756.38
2023-01-17T22:15:43.758Z,97748.06
2023-01-17T22:18:33.198Z,97738.44
2023-01-17T22:21:24.669Z,97741.34
2023-01-17T22:24:15.927Z,97733.34
2023-01-17T22:27:04.546Z,97740.81
2023-01-17T22:29:53.115Z,97743.22
2023-01-17T22:32:41.886Z,97734.13
2023-01-17T22:35:30.520Z,97735.75
2023-01-17T22:38:20.950Z,97733.06
2023-01-17T22:41:13.065Z,97726.13
2023-01-17T22:44:03.162Z,97719.19
2023-01-17T22:46:51.891Z,97722.38
2023-01-17T22:49:41.103Z,97721.84
2023-01-17T22:52:31.438Z,97723.44
2023-01-17T22:55:23.120Z,97716.22
2023-01-17T22:58:11.836Z,97712.50
2023-01-17T23:01:05.938Z,97713.31
2023-01-17T23:03:56.050Z,97707.97
2023-01-17T23:06:45.071Z,97701.81
2023-01-17T23:09:33.803Z,97701.53
2023-01-17T23:12:23.995Z,97698.63
2023-01-17T23:15:30.390Z,97686.06
2023-01-17T23:18:36.868Z,97683.94
2023-01-17T23:21:45.515Z,97671.66
2023-01-17T23:24:34.100Z,97675.66
2023-01-17T23:27:43.939Z,97667.34
2023-01-17T23:30:35.504Z,97671.38
2023-01-17T23:33:24.350Z,97672.69
2023-01-17T23:36:13.185Z,97672.94
2023-01-17T23:39:01.769Z,97680.16
2023-01-17T23:42:08.195Z,97681.78
2023-01-17T23:44:58.263Z,97672.16
2023-01-17T23:47:46.911Z,97676.97
2023-01-17T23:50:35.527Z,97690.31
2023-01-17T23:53:24.205Z,97691.91
2023-01-17T23:56:16.079Z,97677.00
2023-01-17T23:59:05.756Z,97685.25
